Time;durP1;ratioP1;P1;durP2;ratioP2;P2;SDS_P1;SDS_P2;PMS_P1;PMS_P2;Temp;Humidity;BMP_temperature;BMP_pressure;BME280_temperature;BME280_humidity;BME280_pressure;Samples;Min_cycle;Max_cycle;Signal;HPM_P1;HPM_P2
2023/05/05 00:02:25;;;;;;;14.05;11.23;;;;;;;18.73;54.17;101321.22;5030795;28;20041;-61
2023/05/05 00:04:50;;;;;;;13.98;12.52;;;;;;;18.70;54.45;101314.19;5031134;28;20433;-60
2023/05/05 00:07:15;;;;;;;15.10;11.82;;;;;;;18.66;54.79;101327.16;5022179;28;20049;-60
2023/05/05 00:09:41;;;;;;;14.98;12.15;;;;;;;18.63;54.83;101327.75;5012552;28;20385;-60
2023/05/05 00:12:07;;;;;;;15.00;11.93;;;;;;;18.64;54.85;101332.25;5011524;28;20053;-60
2023/05/05 00:14:32;;;;;;;17.60;12.75;;;;;;;18.64;55.14;101338.69;5022053;28;20025;-61
2023/05/05 00:16:58;;;;;;;14.65;12.07;;;;;;;18.61;55.07;101332.81;5014987;28;20536;-60
2023/05/05 00:19:23;;;;;;;13.38;11.40;;;;;;;18.63;55.64;101330.56;5026709;28;20104;-60
2023/05/05 00:21:48;;;;;;;16.42;12.68;;;;;;;18.61;55.82;101333.66;5016124;28;20026;-61
2023/05/05 00:24:14;;;;;;;14.52;13.00;;;;;;;18.55;56.10;101340.47;5021485;28;20037;-61
2023/05/05 00:26:39;;;;;;;16.73;12.65;;;;;;;18.55;56.41;101328.38;5022090;28;20025;-61
2023/05/05 00:29:04;;;;;;;14.10;12.60;;;;;;;18.51;56.67;101344.16;5014343;28;20064;-60
2023/05/05 00:31:30;;;;;;;15.13;13.40;;;;;;;18.51;56.67;101335.72;5026296;28;20075;-60
2023/05/05 00:33:55;;;;;;;17.25;13.63;;;;;;;18.48;56.87;101339.13;5016507;28;20370;-61
2023/05/05 00:36:20;;;;;;;14.38;12.80;;;;;;;18.48;56.91;101336.34;5020406;28;20030;-60
2023/05/05 00:38:45;;;;;;;14.52;13.00;;;;;;;18.43;57.09;101331.59;5023893;28;20037;-61
2023/05/05 00:41:11;;;;;;;14.45;13.00;;;;;;;18.44;57.25;101333.25;5012713;28;20041;-60
2023/05/05 00:43:36;;;;;;;14.52;13.07;;;;;;;18.38;57.26;101329.66;5026089;28;20381;-61
2023/05/05 00:46:12;;;;;;;15.55;14.07;;;;;;;18.36;57.54;101337.53;5018011;28;20080;-61
2023/05/05 00:48:37;;;;;;;16.13;14.45;;;;;;;18.34;57.63;101351.03;5017246;28;20145;-61
2023/05/05 00:51:07;;;;;;;16.02;14.35;;;;;;;18.31;57.95;101353.59;5025829;28;20034;-60
2023/05/05 00:53:33;;;;;;;15.80;14.15;;;;;;;18.29;58.00;101359.50;5013537;28;20056;-60
2023/05/05 00:55:58;;;;;;;16.23;14.52;;;;;;;18.27;58.11;101350.53;5022391;28;20034;-61
2023/05/05 00:58:24;;;;;;;15.77;14.18;;;;;;;18.25;58.05;101357.59;5020447;28;20029;-60
2023/05/05 01:00:49;;;;;;;16.85;15.05;;;;;;;18.21;58.32;101351.72;5015776;28;20022;-61
2023/05/05 01:03:14;;;;;;;16.65;14.90;;;;;;;18.20;58.54;101352.84;5026062;28;20060;-60
2023/05/05 01:06:09;;;;;;;17.05;15.25;;;;;;;18.17;58.49;101350.63;5018158;28;20420;-61
2023/05/05 01:09:00;;;;;;;17.67;15.77;;;;;;;18.10;59.13;101348.13;5017640;28;20359;-61
2023/05/05 01:11:29;;;;;;;17.20;15.38;;;;;;;18.14;58.76;101351.19;5010362;28;20034;-61
2023/05/05 01:14:13;;;;;;;17.70;15.90;;;;;;;18.12;58.30;101353.47;5010163;28;20081;-60
2023/05/05 01:16:49;;;;;;;17.52;15.73;;;;;;;18.03;59.00;101347.63;5009204;28;20355;-60
2023/05/05 01:19:28;;;;;;;17.05;15.25;;;;;;;18.01;59.20;101349.88;5010300;28;20057;-61
2023/05/05 01:21:59;;;;;;;17.10;15.30;;;;;;;17.99;59.11;101363.38;5010076;28;20047;-61
2023/05/05 01:24:55;;;;;;;18.38;16.35;;;;;;;18.03;58.22;101353.22;5009824;28;20029;-60
2023/05/05 01:27:54;;;;;;;19.50;16.27;;;;;;;18.00;58.03;101339.78;5022161;28;20132;-61
2023/05/05 01:30:50;;;;;;;20.73;16.50;;;;;;;17.98;58.33;101329.97;5028981;28;20025;-60
2023/05/05 01:33:22;;;;;;;17.90;15.55;;;;;;;17.96;58.79;101335.03;5029935;28;20040;-61
2023/05/05 01:35:53;;;;;;;19.02;15.40;;;;;;;17.96;58.30;101343.44;5030401;28;20038;-61
2023/05/05 01:38:25;;;;;;;18.83;15.35;;;;;;;17.95;58.32;101353.00;5032731;28;20040;-60
2023/05/05 01:41:12;;;;;;;17.63;14.45;;;;;;;17.98;57.78;101344.00;5033110;28;20120;-60
2023/05/05 01:43:40;;;;;;;17.60;15.50;;;;;;;17.83;58.63;101348.59;5030737;28;20053;-62
2023/05/05 01:46:06;;;;;;;18.17;15.93;;;;;;;17.79;58.93;101336.25;5028581;28;20460;-62
2023/05/05 01:48:32;;;;;;;18.73;15.07;;;;;;;17.80;58.78;101334.28;5032777;28;20473;-61
2023/05/05 01:51:00;;;;;;;17.27;15.48;;;;;;;17.78;58.89;101340.19;5032438;28;20032;-62
2023/05/05 01:53:26;;;;;;;18.17;15.25;;;;;;;17.76;58.60;101342.44;5032514;28;20026;-61
2023/05/05 01:55:53;;;;;;;16.30;14.32;;;;;;;17.74;58.59;101344.69;5033200;28;20056;-62
2023/05/05 01:58:21;;;;;;;16.23;14.07;;;;;;;17.72;58.90;101358.16;5032378;28;20045;-61
2023/05/05 02:00:47;;;;;;;18.95;15.00;;;;;;;17.70;59.20;101359.59;5028777;28;20022;-61
2023/05/05 02:03:14;;;;;;;17.40;14.85;;;;;;;17.64;58.91;101353.16;5032989;28;20458;-61
2023/05/05 02:05:42;;;;;;;17.98;15.43;;;;;;;17.61;59.11;101359.38;5014496;28;20029;-61
2023/05/05 02:08:08;;;;;;;16.63;14.85;;;;;;;17.55;59.19;101354.88;5012761;28;20393;-61
2023/05/05 02:10:34;;;;;;;16.20;14.52;;;;;;;17.49;58.96;101353.22;5013068;28;20026;-63
2023/05/05 02:13:03;;;;;;;16.05;14.32;;;;;;;17.47;59.03;101352.69;5011971;28;20077;-62
2023/05/05 02:15:30;;;;;;;18.00;14.80;;;;;;;17.41;59.40;101355.50;5012635;28;20462;-61
2023/05/05 02:17:58;;;;;;;16.42;14.73;;;;;;;17.33;59.46;101363.66;5021366;28;20473;-61
2023/05/05 02:20:26;;;;;;;18.15;15.50;;;;;;;17.29;59.21;101360.63;5032088;28;20086;-61
2023/05/05 02:22:52;;;;;;;15.93;14.23;;;;;;;17.25;59.47;101367.06;5032634;28;20393;-61
2023/05/05 02:25:18;;;;;;;17.33;15.32;;;;;;;17.21;59.28;101371.56;5032867;28;20057;-61
2023/05/05 02:27:46;;;;;;;16.63;14.93;;;;;;;17.19;59.59;101366.25;5031441;28;20057;-61
2023/05/05 02:30:14;;;;;;;16.65;14.90;;;;;;;17.19;59.53;101366.25;5031900;28;20022;-61
2023/05/05 02:32:45;;;;;;;17.45;15.52;;;;;;;17.12;59.80;101379.72;5032227;28;20061;-61
2023/05/05 02:35:18;;;;;;;18.65;15.73;;;;;;;17.14;59.58;101378.31;5028341;28;20124;-61
2023/05/05 02:37:49;;;;;;;18.27;15.65;;;;;;;17.06;59.77;101387.31;5032317;28;20052;-61
2023/05/05 02:40:18;;;;;;;19.13;16.00;;;;;;;17.00;60.00;101379.19;5031462;28;20053;-61
2023/05/05 02:42:45;;;;;;;17.70;15.88;;;;;;;17.02;60.08;101383.41;5032520;28;20104;-62
2023/05/05 02:45:14;;;;;;;18.42;16.45;;;;;;;16.97;60.36;101391.81;5031635;28;20112;-61
2023/05/05 02:47:39;;;;;;;17.52;15.73;;;;;;;16.98;60.51;101399.13;5031588;28;20026;-61
2023/05/05 02:50:06;;;;;;;18.40;16.50;;;;;;;16.96;60.81;101395.75;5026624;28;20583;-61
2023/05/05 02:52:31;;;;;;;19.25;17.25;;;;;;;16.92;60.86;101392.66;5030268;28;20167;-61
2023/05/05 02:54:57;;;;;;;19.10;17.10;;;;;;;16.91;60.92;101393.78;5031194;28;20120;-61
2023/05/05 02:57:31;;;;;;;20.17;16.83;;;;;;;16.90;60.75;101394.94;5031859;28;20021;-61
2023/05/05 03:00:06;;;;;;;19.42;16.75;;;;;;;16.91;60.58;101393.78;5031888;28;20030;-61
2023/05/05 03:02:43;;;;;;;17.42;15.63;;;;;;;16.90;60.34;101389.31;5029836;28;20032;-61
2023/05/05 03:05:30;;;;;;;20.48;16.15;;;;;;;16.82;60.72;101383.41;5012376;28;20080;-61
2023/05/05 03:08:07;;;;;;;19.63;15.93;;;;;;;16.81;60.38;101390.16;4996474;28;20048;-61
2023/05/05 03:10:46;;;;;;;17.48;15.63;;;;;;;16.79;60.12;101382.03;5030818;28;20036;-61
2023/05/05 03:13:15;;;;;;;16.10;14.40;;;;;;;16.77;60.21;101389.03;5031509;28;20056;-61
2023/05/05 03:15:45;;;;;;;17.17;15.20;;;;;;;16.73;60.58;101396.28;5031237;28;20033;-62
2023/05/05 03:18:11;;;;;;;17.10;15.30;;;;;;;16.70;60.63;101389.28;5031431;28;20034;-62
2023/05/05 03:20:38;;;;;;;15.93;14.32;;;;;;;16.69;60.44;101390.41;5031521;28;20099;-62
2023/05/05 03:23:04;;;;;;;19.20;15.93;;;;;;;16.67;60.49;101387.06;5031006;28;20025;-62
2023/05/05 03:25:43;;;;;;;18.58;14.88;;;;;;;16.64;60.31;101401.63;5022806;28;20073;-62
2023/05/05 03:28:08;;;;;;;17.30;14.88;;;;;;;16.62;60.55;101407.53;5027792;28;20017;-61
2023/05/05 03:30:34;;;;;;;16.45;14.75;;;;;;;16.55;60.77;101404.16;5030729;28;20532;-62
2023/05/05 03:32:59;;;;;;;16.90;14.55;;;;;;;16.55;60.84;101403.31;5030977;28;20045;-61
2023/05/05 03:35:24;;;;;;;16.95;14.68;;;;;;;16.56;60.62;101405.00;5031442;28;20037;-61
2023/05/05 03:37:50;;;;;;;15.80;14.15;;;;;;;16.43;60.89;101404.44;5029701;28;20428;-62
2023/05/05 03:40:15;;;;;;;16.40;14.18;;;;;;;16.44;60.80;101397.69;5031441;28;20101;-61
2023/05/05 03:42:40;;;;;;;15.43;13.82;;;;;;;16.42;60.98;101399.94;5026736;28;20416;-61
2023/05/05 03:45:06;;;;;;;16.20;14.50;;;;;;;16.39;61.01;101402.47;5010115;28;20108;-62
2023/05/05 03:47:31;;;;;;;17.30;14.52;;;;;;;16.38;61.20;101407.22;5010871;28;20504;-61
2023/05/05 03:49:57;;;;;;;16.67;14.95;;;;;;;16.38;61.23;101404.41;4993721;28;20029;-61
2023/05/05 03:52:22;;;;;;;19.23;15.30;;;;;;;16.34;61.29;101406.09;5010498;28;20033;-61
2023/05/05 03:54:47;;;;;;;17.63;15.93;;;;;;;16.36;61.19;101409.47;5010903;28;20022;-61
2023/05/05 03:57:13;;;;;;;24.55;16.30;;;;;;;16.27;61.62;101408.34;5011123;28;20109;-61
2023/05/05 03:59:38;;;;;;;18.65;15.73;;;;;;;16.28;61.46;101415.63;5009005;28;20041;-61
2023/05/05 04:02:03;;;;;;;18.75;15.95;;;;;;;16.29;61.53;101424.84;5019631;28;20029;-61
2023/05/05 04:04:28;;;;;;;17.88;15.95;;;;;;;16.20;61.60;101418.97;5010383;28;20453;-62
2023/05/05 04:06:54;;;;;;;17.80;15.07;;;;;;;16.17;61.49;101416.72;5010865;28;20024;-62
2023/05/05 04:09:21;;;;;;;16.80;14.98;;;;;;;16.20;61.56;101425.41;5011274;28;20377;-61
2023/05/05 04:11:47;;;;;;;19.63;15.23;;;;;;;16.23;61.37;101425.97;5009748;28;20547;-61
2023/05/05 04:14:12;;;;;;;16.75;14.00;;;;;;;16.17;61.45;101425.97;5011098;28;20037;-61
2023/05/05 04:16:37;;;;;;;17.17;14.02;;;;;;;16.16;61.28;101426.25;5009508;28;20058;-62
2023/05/05 04:19:03;;;;;;;15.35;13.77;;;;;;;16.17;61.36;101428.75;5019526;28;20034;-61
2023/05/05 04:21:28;;;;;;;15.52;13.55;;;;;;;16.09;61.43;101434.06;5030345;28;20071;-61
2023/05/05 04:23:53;;;;;;;14.45;13.02;;;;;;;16.11;61.06;101441.09;5030703;28;20029;-61
2023/05/05 04:26:18;;;;;;;18.52;13.52;;;;;;;16.07;61.29;101436.28;5029844;28;20033;-61
2023/05/05 04:28:44;;;;;;;16.45;13.38;;;;;;;16.10;61.26;101424.53;5030073;28;20092;-61
2023/05/05 04:31:09;;;;;;;14.35;12.85;;;;;;;16.04;61.32;101440.50;5030573;28;20032;-61
2023/05/05 04:33:34;;;;;;;15.93;13.60;;;;;;;16.07;61.28;101433.47;5026879;28;20044;-61
2023/05/05 04:36:02;;;;;;;14.65;12.60;;;;;;;16.05;61.36;101446.94;5029302;28;20026;-61
2023/05/05 04:38:28;;;;;;;14.55;11.85;;;;;;;16.03;61.12;101447.19;5030676;28;20141;-61
2023/05/05 04:40:53;;;;;;;14.63;13.07;;;;;;;16.01;61.55;101440.19;5029391;28;20643;-61
2023/05/05 04:43:19;;;;;;;15.20;12.85;;;;;;;15.97;61.58;101441.88;5030470;28;20041;-61
2023/05/05 04:45:51;;;;;;;15.68;12.25;;;;;;;15.98;61.36;101446.34;5030313;28;20033;-61
2023/05/05 04:48:19;;;;;;;13.57;11.85;;;;;;;15.97;61.54;101453.06;5029695;28;20030;-61
2023/05/05 04:50:45;;;;;;;14.88;13.27;;;;;;;15.94;61.53;101449.69;5023376;28;20484;-61
2023/05/05 04:53:10;;;;;;;13.60;12.30;;;;;;;15.98;61.44;101451.94;5010195;28;20080;-61
2023/05/05 04:55:35;;;;;;;14.07;12.68;;;;;;;15.90;61.64;101442.13;5009997;28;20073;-61
2023/05/05 04:58:01;;;;;;;13.57;12.18;;;;;;;15.92;61.55;101439.91;5010198;28;20033;-61
2023/05/05 05:00:26;;;;;;;13.98;12.55;;;;;;;15.94;61.56;101438.50;5010175;28;20533;-61
2023/05/05 05:02:52;;;;;;;14.40;12.90;;;;;;;15.92;61.60;101435.13;5019450;28;20095;-61
2023/05/05 05:05:17;;;;;;;14.98;12.30;;;;;;;15.92;61.65;101440.75;5029828;28;20030;-61
2023/05/05 05:07:42;;;;;;;15.18;13.38;;;;;;;15.94;61.54;101432.88;5030512;28;20473;-61
2023/05/05 05:10:08;;;;;;;14.95;13.35;;;;;;;15.93;61.60;101434.00;5029453;28;20060;-61
2023/05/05 05:12:33;;;;;;;16.10;12.70;;;;;;;15.95;61.49;101439.31;5033774;28;20049;-61
2023/05/05 05:14:59;;;;;;;14.35;12.85;;;;;;;15.94;61.81;101427.28;5024405;28;20496;-61
2023/05/05 05:17:25;;;;;;;15.07;13.32;;;;;;;15.92;61.96;101428.69;5034376;28;20100;-61
2023/05/05 05:19:51;;;;;;;15.45;13.05;;;;;;;15.86;62.25;101425.03;5022728;28;20033;-61
2023/05/05 05:22:16;;;;;;;16.52;14.52;;;;;;;15.89;62.24;101434.84;5013502;28;20057;-60
2023/05/05 05:24:41;;;;;;;16.58;14.13;;;;;;;15.85;62.29;101434.53;5014079;28;20136;-61
2023/05/05 05:27:08;;;;;;;15.88;14.20;;;;;;;15.91;62.36;101429.78;5013765;28;20033;-61
2023/05/05 05:29:33;;;;;;;15.68;13.07;;;;;;;15.92;62.26;101435.13;5013552;28;20024;-61
2023/05/05 05:31:59;;;;;;;16.20;14.20;;;;;;;15.89;62.37;101432.88;5013776;28;20025;-61
2023/05/05 05:34:24;;;;;;;15.85;14.32;;;;;;;15.91;61.73;101433.44;5014047;28;20112;-61
2023/05/05 05:36:50;;;;;;;17.10;13.75;;;;;;;15.94;61.94;101443.25;5013055;28;20073;-61
2023/05/05 05:39:15;;;;;;;16.20;14.50;;;;;;;15.97;62.32;101448.31;5012097;28;20030;-60
2023/05/05 05:41:40;;;;;;;17.15;14.95;;;;;;;15.99;62.23;101450.81;5013554;28;20026;-61
2023/05/05 05:44:06;;;;;;;16.50;13.88;;;;;;;16.02;62.11;101455.88;5012386;28;20030;-61
2023/05/05 05:46:31;;;;;;;16.88;14.23;;;;;;;16.04;61.98;101464.84;5013686;28;20084;-61
2023/05/05 05:48:56;;;;;;;16.60;14.77;;;;;;;16.01;62.42;101482.19;5013595;28;20492;-61
2023/05/05 05:51:22;;;;;;;16.42;14.30;;;;;;;16.02;62.19;101489.47;5012082;28;20036;-61
2023/05/05 05:53:47;;;;;;;17.55;14.38;;;;;;;16.06;62.24;101485.84;5013770;28;20034;-61
2023/05/05 05:56:12;;;;;;;17.00;14.40;;;;;;;16.12;62.13;101497.94;5011549;28;20050;-60
2023/05/05 05:58:37;;;;;;;16.00;13.52;;;;;;;16.18;61.92;101502.41;5029167;28;20084;-60
2023/05/05 06:01:04;;;;;;;15.38;13.77;;;;;;;16.23;61.81;101508.06;5013049;28;20037;-60
2023/05/05 06:03:29;;;;;;;16.58;13.48;;;;;;;16.26;61.83;101504.69;5013637;28;20032;-61
2023/05/05 06:05:54;;;;;;;15.63;13.75;;;;;;;16.38;61.75;101521.25;5012230;28;20030;-60
2023/05/05 06:08:20;;;;;;;15.30;12.60;;;;;;;16.55;61.16;101504.22;5013238;28;20041;-60
2023/05/05 06:10:47;;;;;;;15.02;13.45;;;;;;;16.62;61.39;101514.03;5011831;28;20496;-60
2023/05/05 06:13:12;;;;;;;15.88;14.23;;;;;;;16.69;61.36;101513.75;5012217;28;20045;-60
2023/05/05 06:15:37;;;;;;;15.45;13.85;;;;;;;16.85;61.08;101514.63;5012871;28;20359;-60
2023/05/05 06:18:03;;;;;;;16.75;14.45;;;;;;;16.89;61.29;101516.59;5012237;28;20425;-60
2023/05/05 06:20:28;;;;;;;16.52;14.15;;;;;;;16.98;60.91;101521.66;5012523;28;20034;-60
2023/05/05 06:22:53;;;;;;;16.83;14.10;;;;;;;17.11;60.97;101532.31;5011959;28;20030;-60
2023/05/05 06:25:19;;;;;;;20.42;14.50;;;;;;;17.23;60.87;101524.47;5012203;28;20030;-62
2023/05/05 06:27:44;;;;;;;16.80;14.40;;;;;;;17.34;60.42;101517.72;5016040;28;20034;-61
2023/05/05 06:30:13;;;;;;;16.20;14.50;;;;;;;17.47;60.23;101524.72;5032436;28;20025;-61
2023/05/05 06:32:38;;;;;;;18.60;14.52;;;;;;;17.56;59.81;101519.34;5031297;28;20060;-61
2023/05/05 06:35:07;;;;;;;18.30;14.70;;;;;;;17.69;59.98;101527.22;5032622;28;20358;-61
2023/05/05 06:37:33;;;;;;;18.13;14.90;;;;;;;17.74;59.57;101507.53;5031889;28;20033;-61
2023/05/05 06:39:58;;;;;;;17.52;15.27;;;;;;;17.77;59.81;101515.41;5031789;28;20087;-61
2023/05/05 06:42:23;;;;;;;17.98;14.35;;;;;;;17.85;59.98;101514.84;5031830;28;20111;-61
2023/05/05 06:44:49;;;;;;;18.02;14.95;;;;;;;17.87;59.95;101514.53;5019909;28;20042;-61
2023/05/05 06:47:14;;;;;;;20.20;15.70;;;;;;;17.87;59.82;101511.72;5011553;28;20026;-61
2023/05/05 06:49:39;;;;;;;19.30;15.15;;;;;;;17.90;59.96;101516.78;5011542;28;20038;-61
2023/05/05 06:52:07;;;;;;;16.17;13.65;;;;;;;17.99;59.65;101517.03;5012360;28;20378;-61
2023/05/05 06:54:32;;;;;;;16.92;13.63;;;;;;;18.10;59.74;101521.47;5011155;28;20029;-61
2023/05/05 06:56:57;;;;;;;17.50;13.15;;;;;;;18.20;59.32;101524.25;5012219;28;20049;-61
2023/05/05 06:59:22;;;;;;;16.55;12.55;;;;;;;18.28;58.68;101522.81;5011798;28;20101;-61
2023/05/05 07:01:48;;;;;;;14.38;12.15;;;;;;;18.36;58.58;101519.38;5010394;28;20033;-61
2023/05/05 07:04:13;;;;;;;17.30;13.25;;;;;;;18.41;58.62;101522.16;5030987;28;20034;-61
2023/05/05 07:06:38;;;;;;;13.93;12.35;;;;;;;18.45;58.85;101525.25;5031704;28;20060;-61
2023/05/05 07:09:03;;;;;;;15.95;11.57;;;;;;;18.50;58.08;101528.00;5030281;28;20081;-61
2023/05/05 07:11:29;;;;;;;15.48;11.30;;;;;;;18.56;57.91;101527.69;5031528;28;20045;-61
2023/05/05 07:13:54;;;;;;;13.07;10.20;;;;;;;18.64;57.77;101543.13;5030778;28;20135;-61
2023/05/05 07:16:19;;;;;;;11.48;9.65;;;;;;;18.72;57.48;101533.25;5030876;28;20053;-61
2023/05/05 07:18:45;;;;;;;11.35;9.48;;;;;;;18.86;57.43;101535.13;5024486;28;20436;-62
2023/05/05 07:21:10;;;;;;;13.60;10.02;;;;;;;18.92;57.01;101535.09;5031148;28;20029;-62
2023/05/05 07:23:36;;;;;;;12.00;9.60;;;;;;;18.95;57.13;101542.94;5030813;28;20030;-62
2023/05/05 07:26:02;;;;;;;12.57;9.73;;;;;;;18.91;56.73;101541.84;5031397;28;20029;-62
2023/05/05 07:28:27;;;;;;;11.57;8.65;;;;;;;18.85;56.49;101541.88;5030335;28;20025;-62
2023/05/05 07:30:53;;;;;;;11.18;8.98;;;;;;;18.83;56.65;101543.31;5031089;28;20029;-61
2023/05/05 07:33:19;;;;;;;13.73;9.15;;;;;;;18.72;56.34;101545.34;5030594;28;20033;-62
2023/05/05 07:35:44;;;;;;;16.33;9.02;;;;;;;18.68;56.38;101538.59;5026617;28;20043;-62
2023/05/05 07:38:10;;;;;;;12.18;9.02;;;;;;;18.60;56.51;101534.41;5031173;28;20041;-61
2023/05/05 07:40:35;;;;;;;12.50;8.10;;;;;;;18.59;56.76;101541.19;5031303;28;20500;-61
2023/05/05 07:43:01;;;;;;;9.48;8.32;;;;;;;18.61;56.96;101529.63;5029534;28;20432;-61
2023/05/05 07:45:27;;;;;;;10.68;8.38;;;;;;;18.70;56.78;101527.03;5031296;28;20034;-59
2023/05/05 07:47:53;;;;;;;12.10;8.77;;;;;;;18.69;56.34;101526.19;5031191;28;20029;-61
2023/05/05 07:50:19;;;;;;;10.68;7.60;;;;;;;18.77;56.49;101527.59;5030121;28;20041;-60
2023/05/05 07:52:45;;;;;;;12.30;8.00;;;;;;;18.77;56.28;101520.00;5023415;28;20033;-60
2023/05/05 07:55:10;;;;;;;11.43;8.90;;;;;;;18.82;56.11;101519.97;5030730;28;20376;-61
2023/05/05 07:57:35;;;;;;;11.73;8.57;;;;;;;18.85;56.18;101519.38;5017668;28;20568;-60
2023/05/05 08:00:01;;;;;;;10.82;8.52;;;;;;;18.93;56.05;101509.47;5011250;28;20084;-61
2023/05/05 08:02:27;;;;;;;14.57;7.88;;;;;;;19.12;55.97;101515.22;5010655;28;20109;-61
2023/05/05 08:04:52;;;;;;;10.80;7.80;;;;;;;19.30;56.11;101516.47;5010449;28;20464;-61
2023/05/05 08:07:17;;;;;;;10.80;7.22;;;;;;;19.42;55.08;101518.91;5010752;28;20034;-61
2023/05/05 08:09:43;;;;;;;12.35;7.25;;;;;;;19.49;54.82;101519.38;5015079;28;20025;-60
2023/05/05 08:12:08;;;;;;;8.40;6.50;;;;;;;19.63;54.59;101520.41;5029153;28;20050;-61
2023/05/05 08:14:35;;;;;;;10.73;7.35;;;;;;;19.71;54.08;101518.91;5030771;28;20025;-60
2023/05/05 08:17:00;;;;;;;9.20;6.88;;;;;;;19.80;54.40;101519.91;5030637;28;20542;-61
2023/05/05 08:19:26;;;;;;;10.30;6.70;;;;;;;19.84;54.24;101527.47;5029475;28;20033;-61
2023/05/05 08:21:51;;;;;;;9.52;7.00;;;;;;;19.86;53.82;101533.66;5030529;28;20033;-60
2023/05/05 08:24:16;;;;;;;9.98;6.47;;;;;;;19.91;53.58;101526.28;5028307;28;20049;-60
2023/05/05 08:26:41;;;;;;;11.07;6.72;;;;;;;19.93;53.19;101535.28;5017164;28;20052;-60
2023/05/05 08:29:07;;;;;;;7.78;5.60;;;;;;;19.93;53.09;101533.31;5030388;28;20056;-60
2023/05/05 08:31:34;;;;;;;7.43;5.10;;;;;;;20.00;53.94;101525.34;5030395;28;20075;-60
2023/05/05 08:33:59;;;;;;;6.28;4.80;;;;;;;20.04;53.26;101534.88;5029655;28;20431;-61
2023/05/05 08:36:26;;;;;;;7.75;4.40;;;;;;;19.98;52.57;101529.59;5030447;28;20030;-60
2023/05/05 08:38:51;;;;;;;7.90;3.55;;;;;;;19.97;52.75;101533.53;5029972;28;20060;-59
2023/05/05 08:41:18;;;;;;;8.20;4.82;;;;;;;19.89;52.84;101535.03;5030539;28;20077;-60
2023/05/05 08:43:46;;;;;;;7.88;5.35;;;;;;;19.76;53.71;101530.94;5013861;28;20114;-60
2023/05/05 08:46:12;;;;;;;8.75;4.93;;;;;;;19.72;53.91;101529.84;5025694;28;20026;-61
2023/05/05 08:48:40;;;;;;;9.05;4.93;;;;;;;19.67;54.15;101529.09;5026115;28;20096;-60
2023/05/05 08:51:08;;;;;;;7.30;4.40;;;;;;;19.66;54.45;101533.03;5026294;28;20022;-60
2023/05/05 08:53:56;;;;;;;6.50;3.95;;;;;;;19.61;54.29;101529.16;5017400;28;20478;-61
2023/05/05 08:56:26;;;;;;;6.57;3.50;;;;;;;19.57;54.03;101536.47;5014617;28;20037;-61
2023/05/05 08:58:51;;;;;;;6.47;3.40;;;;;;;19.56;54.24;101534.78;5014415;28;20034;-61
2023/05/05 09:01:17;;;;;;;8.30;3.05;;;;;;;19.52;54.19;101533.69;5013845;28;20029;-61
2023/05/05 09:03:43;;;;;;;5.78;3.05;;;;;;;19.52;53.83;101530.03;5014280;28;20072;-61
2023/05/05 09:06:09;;;;;;;5.25;3.50;;;;;;;19.52;53.80;101527.22;5014239;28;20508;-61
2023/05/05 09:08:36;;;;;;;5.18;3.70;;;;;;;19.49;53.87;101525.00;5013723;28;20084;-61
2023/05/05 09:11:02;;;;;;;5.60;3.08;;;;;;;19.50;54.00;101529.53;5024686;28;20029;-61
2023/05/05 09:13:28;;;;;;;7.15;3.10;;;;;;;19.49;54.37;101525.00;5033846;28;20160;-61
2023/05/05 09:15:56;;;;;;;4.88;3.00;;;;;;;19.50;53.67;101529.53;5033037;28;20025;-61
2023/05/05 09:18:22;;;;;;;5.20;3.28;;;;;;;19.50;53.90;101536.00;5033930;28;20032;-61
2023/05/05 09:20:47;;;;;;;6.72;3.28;;;;;;;19.53;53.65;101537.34;5030024;28;20041;-61
2023/05/05 09:23:15;;;;;;;6.15;3.50;;;;;;;19.56;53.92;101533.94;5033467;28;20074;-61
2023/05/05 09:25:43;;;;;;;6.13;3.50;;;;;;;19.58;54.09;101543.78;5033674;28;20520;-61
2023/05/05 09:28:10;;;;;;;6.25;3.90;;;;;;;19.57;54.03;101539.31;5032941;28;20033;-61
2023/05/05 09:30:37;;;;;;;7.88;3.92;;;;;;;19.56;54.39;101545.22;5034003;28;20025;-61
2023/05/05 09:33:02;;;;;;;8.65;4.22;;;;;;;19.48;54.01;101534.59;5033508;28;20029;-61
2023/05/05 09:35:28;;;;;;;5.97;3.40;;;;;;;19.48;54.38;101543.03;5026436;28;20080;-61
2023/05/05 09:37:53;;;;;;;5.55;3.60;;;;;;;19.43;54.26;101546.75;5032293;28;20033;-61
2023/05/05 09:40:19;;;;;;;8.68;4.20;;;;;;;19.36;54.26;101547.09;5033242;28;20033;-61
2023/05/05 09:42:46;;;;;;;7.65;4.18;;;;;;;19.36;54.12;101535.00;5032312;28;20041;-61
2023/05/05 09:45:17;;;;;;;8.80;3.90;;;;;;;19.32;54.57;101536.72;5033415;28;20037;-61
2023/05/05 09:47:44;;;;;;;6.88;4.47;;;;;;;19.32;54.56;101536.72;5033216;28;20037;-61
2023/05/05 09:50:14;;;;;;;9.65;4.68;;;;;;;19.28;55.06;101544.91;5032803;28;20548;-61
2023/05/05 09:52:53;;;;;;;7.10;3.90;;;;;;;19.28;54.90;101539.28;5030013;28;20059;-61
2023/05/05 09:55:18;;;;;;;7.95;4.35;;;;;;;19.25;55.16;101541.84;5013119;28;20033;-61
2023/05/05 09:57:47;;;;;;;7.55;4.50;;;;;;;19.23;55.58;101530.88;5011805;28;20385;-59
2023/05/05 10:00:13;;;;;;;8.95;4.32;;;;;;;19.23;56.86;101530.88;5013391;28;20030;-59
2023/05/05 10:02:39;;;;;;;7.38;4.43;;;;;;;19.25;57.85;101534.22;5013483;28;20101;-60
2023/05/05 10:05:08;;;;;;;7.00;4.07;;;;;;;19.21;58.28;101535.13;5012485;28;20469;-60
2023/05/05 10:07:35;;;;;;;6.65;3.72;;;;;;;19.16;58.32;101538.00;5012824;28;20432;-60
2023/05/05 10:10:02;;;;;;;9.02;3.70;;;;;;;19.10;58.76;101532.41;5012561;28;20080;-61
2023/05/05 10:12:30;;;;;;;8.63;4.05;;;;;;;19.07;59.03;101537.78;5015277;28;20084;-60
2023/05/05 10:14:56;;;;;;;7.55;4.47;;;;;;;19.04;59.16;101536.38;5017449;28;20117;-60
2023/05/05 10:17:22;;;;;;;6.03;4.25;;;;;;;19.01;59.14;101539.78;5012477;28;20093;-60
2023/05/05 10:19:55;;;;;;;6.57;3.53;;;;;;;19.04;59.01;101538.38;5013085;28;20156;-60
2023/05/05 10:22:22;;;;;;;6.97;3.75;;;;;;;19.02;58.63;101535.00;5013512;28;20049;-60
2023/05/05 10:25:00;;;;;;;8.43;4.10;;;;;;;18.99;58.74;101536.44;5012177;28;20026;-60
2023/05/05 10:27:27;;;;;;;7.15;4.40;;;;;;;18.95;59.72;101531.69;5013116;28;20385;-60
2023/05/05 10:30:02;;;;;;;9.25;5.50;;;;;;;18.94;60.00;101535.63;5018633;28;20022;-60
2023/05/05 10:32:42;;;;;;;12.77;5.90;;;;;;;18.88;60.74;101535.66;5031985;28;20029;-60
2023/05/05 10:35:09;;;;;;;8.30;6.10;;;;;;;18.84;62.41;101548.63;5032729;28;20025;-60
2023/05/05 10:37:37;;;;;;;9.63;6.10;;;;;;;18.81;63.15;101556.81;5033077;28;20025;-60
2023/05/05 10:40:03;;;;;;;11.60;7.10;;;;;;;18.76;64.68;101542.78;5031784;28;20027;-60
2023/05/05 10:42:28;;;;;;;14.52;7.10;;;;;;;18.68;64.84;101563.91;5029721;28;20461;-60
2023/05/05 10:44:54;;;;;;;10.57;6.53;;;;;;;18.65;65.28;101559.69;5015743;28;20041;-60
2023/05/05 10:47:21;;;;;;;11.32;7.20;;;;;;;18.58;66.36;101563.94;5011926;28;20021;-60
2023/05/05 10:49:58;;;;;;;11.65;7.82;;;;;;;18.56;66.58;101566.22;5012404;28;20030;-60
2023/05/05 10:52:32;;;;;;;13.43;7.60;;;;;;;18.47;67.16;101567.94;5011906;28;20045;-60
2023/05/05 10:55:14;;;;;;;11.05;6.65;;;;;;;18.46;65.78;101557.84;5012634;28;20026;-61
2023/05/05 10:57:42;;;;;;;7.30;5.50;;;;;;;18.38;65.50;101560.09;5012285;28;20041;-61
2023/05/05 11:00:08;;;;;;;11.70;5.60;;;;;;;18.43;65.98;101549.97;5011432;28;20030;-60
2023/05/05 11:02:35;;;;;;;8.48;5.35;;;;;;;18.38;65.87;101565.72;5012878;28;20040;-61
2023/05/05 11:05:05;;;;;;;10.07;5.70;;;;;;;18.29;66.70;101572.25;5030784;28;20481;-60
2023/05/05 11:07:37;;;;;;;12.88;5.88;;;;;;;18.23;67.94;101584.63;5031045;28;20563;-61
2023/05/05 11:10:04;;;;;;;7.40;5.72;;;;;;;18.16;68.45;101584.97;5031801;28;20079;-60
2023/05/05 11:12:31;;;;;;;11.80;6.65;;;;;;;18.12;69.25;101579.06;5031761;28;20049;-60
2023/05/05 11:15:24;;;;;;;11.38;6.13;;;;;;;18.17;68.33;101581.00;5031233;28;20021;-60
2023/05/05 11:17:50;;;;;;;9.68;6.75;;;;;;;18.15;69.64;101578.47;5031466;28;20068;-61